createdAt,value
2016-08-12T00:00:25.182Z,17.31
2016-08-12T00:01:25.208Z,17.36
2016-08-12T00:02:25.228Z,17.3
2016-08-12T00:03:25.257Z,17.36
2016-08-12T00:04:25.983Z,17.39
2016-08-12T00:05:25.322Z,17.33
2016-08-12T00:06:25.325Z,17.39
2016-08-12T00:07:25.349Z,17.38
2016-08-12T00:08:25.378Z,17.34
2016-08-12T00:09:25.597Z,17.38
2016-08-12T00:10:25.424Z,17.34
2016-08-12T00:11:25.447Z,17.33
2016-08-12T00:12:25.468Z,17.39
2016-08-12T00:13:25.491Z,17.34
2016-08-12T00:14:25.512Z,17.33
2016-08-12T00:15:26.257Z,17.36
2016-08-12T00:16:25.565Z,17.36
2016-08-12T00:17:25.585Z,17.39
2016-08-12T00:18:25.607Z,17.36
2016-08-12T00:19:25.653Z,17.34
2016-08-12T00:20:25.662Z,17.44
2016-08-12T00:21:25.684Z,17.36
2016-08-12T00:22:25.708Z,17.44
2016-08-12T00:23:25.729Z,17.36
2016-08-12T00:24:25.750Z,17.39
2016-08-12T00:25:26.480Z,17.33
2016-08-12T00:26:25.798Z,17.34
2016-08-12T00:27:25.821Z,17.39
2016-08-12T00:28:25.844Z,17.36
2016-08-12T00:29:25.868Z,17.38
2016-08-12T00:30:26.607Z,17.39
2016-08-12T00:31:25.917Z,17.36
2016-08-12T00:32:26.652Z,17.49
2016-08-12T00:33:25.959Z,17.36
2016-08-12T00:34:25.998Z,17.45
2016-08-12T00:35:26.718Z,17.36
2016-08-12T00:36:26.036Z,17.33
2016-08-12T00:37:26.059Z,17.38
2016-08-12T00:38:26.087Z,17.41
2016-08-12T00:39:26.107Z,17.36
2016-08-12T00:40:26.842Z,17.29
2016-08-12T00:41:26.156Z,17.34
2016-08-12T00:42:26.178Z,17.27
2016-08-12T00:43:26.201Z,17.3
2016-08-12T00:44:26.255Z,17.39
2016-08-12T00:45:26.255Z,17.31
2016-08-12T00:46:26.275Z,17.31
2016-08-12T00:47:26.299Z,17.29
2016-08-12T00:48:26.334Z,17.34
2016-08-12T00:49:27.076Z,17.41
2016-08-12T00:50:27.078Z,17.33
2016-08-12T00:51:26.470Z,17.39
2016-08-12T00:52:26.414Z,17.31
2016-08-12T00:53:26.442Z,17.34
2016-08-12T00:54:26.463Z,17.38
2016-08-12T00:55:26.489Z,17.38
2016-08-12T00:56:26.515Z,17.34
2016-08-12T00:57:26.537Z,17.34
2016-08-12T00:58:27.277Z,17.34
2016-08-12T00:59:27.292Z,17.3
2016-08-12T01:00:26.608Z,17.34
2016-08-12T01:01:26.632Z,17.34
2016-08-12T01:02:26.655Z,17.34
2016-08-12T01:03:26.696Z,17.38
2016-08-12T01:04:26.701Z,17.31
2016-08-12T01:05:26.728Z,17.31
2016-08-12T01:06:26.755Z,17.38
2016-08-12T01:07:26.773Z,17.34
2016-08-12T01:08:26.796Z,17.36
2016-08-12T01:09:26.821Z,17.33
2016-08-12T01:10:26.846Z,17.31
2016-08-12T01:11:27.575Z,17.29
2016-08-12T01:12:26.893Z,17.3
2016-08-12T01:13:27.630Z,17.33
2016-08-12T01:14:26.962Z,17.29
2016-08-12T01:15:26.968Z,17.31
2016-08-12T01:16:26.987Z,17.39
2016-08-12T01:17:27.012Z,17.45
2016-08-12T01:18:27.033Z,17.36
2016-08-12T01:19:27.788Z,17.34
2016-08-12T01:20:27.087Z,17.38
2016-08-12T01:21:27.108Z,17.38
2016-08-12T01:22:27.128Z,17.34
2016-08-12T01:23:27.153Z,17.38
2016-08-12T01:24:27.891Z,17.34
2016-08-12T01:25:27.914Z,17.34
2016-08-12T01:26:27.935Z,17.39
2016-08-12T01:27:27.250Z,17.38
2016-08-12T01:28:28.009Z,17.42
2016-08-12T01:29:27.300Z,17.24
2016-08-12T01:30:27.322Z,17.34
2016-08-12T01:31:28.067Z,17.39
2016-08-12T01:32:28.077Z,17.34
2016-08-12T01:33:27.392Z,17.33
2016-08-12T01:34:28.125Z,17.29
2016-08-12T01:35:27.450Z,17.31
2016-08-12T01:36:27.461Z,17.38
2016-08-12T01:37:28.922Z,17.36
2016-08-12T01:38:28.219Z,17.3
2016-08-12T01:39:27.532Z,17.36
2016-08-12T01:40:27.557Z,17.34
2016-08-12T01:41:27.578Z,17.41
2016-08-12T01:42:27.602Z,17.44
2016-08-12T01:43:27.626Z,17.3
2016-08-12T01:44:27.665Z,17.38
2016-08-12T01:45:27.676Z,17.34
2016-08-12T01:46:27.696Z,17.38
2016-08-12T01:47:28.431Z,17.38
2016-08-12T01:49:27.775Z,17.29
2016-08-12T01:50:27.796Z,17.39
2016-08-12T01:51:27.829Z,17.22
2016-08-12T01:52:28.546Z,17.26
2016-08-12T01:53:27.866Z,17.24
2016-08-12T01:54:28.597Z,17.15
2016-08-12T01:55:27.905Z,17.26
2016-08-12T01:56:27.941Z,17.15
2016-08-12T01:57:27.958Z,17.11
2016-08-12T01:58:27.980Z,17.16
2016-08-12T01:59:28.003Z,17.15
2016-08-12T02:00:28.026Z,17.24
2016-08-12T02:01:28.760Z,17.16
2016-08-12T02:02:28.076Z,17.15
2016-08-12T02:03:28.098Z,17.16
2016-08-12T02:04:28.121Z,17.19
2016-08-12T02:05:28.143Z,17.16
2016-08-12T02:06:28.168Z,17.27
2016-08-12T02:07:28.203Z,17.14
2016-08-12T02:08:28.231Z,17.15
2016-08-12T02:09:28.966Z,17.11
2016-08-12T02:10:28.266Z,17.15
2016-08-12T02:11:28.288Z,17.09
2016-08-12T02:12:28.319Z,17.06
2016-08-12T02:13:28.337Z,17.05
2016-08-12T02:14:28.364Z,17.02
2016-08-12T02:15:28.380Z,17.11
2016-08-12T02:16:28.405Z,17.08
2016-08-12T02:17:28.463Z,16.99
2016-08-12T02:19:28.475Z,17.02
2016-08-12T02:20:28.505Z,17.02
2016-08-12T02:21:29.230Z,16.96
2016-08-12T02:22:28.556Z,16.94
2016-08-12T02:23:29.284Z,17.01
2016-08-12T02:24:28.606Z,16.96
2016-08-12T02:25:29.328Z,17.02
2016-08-12T02:26:29.349Z,16.96
2016-08-12T02:27:28.663Z,16.93
2016-08-12T02:28:28.689Z,17.01
2016-08-12T02:29:28.713Z,16.94
2016-08-12T02:30:28.737Z,16.96
2016-08-12T02:31:28.758Z,17.04
2016-08-12T02:32:28.784Z,16.96
2016-08-12T02:34:28.829Z,17.05
2016-08-12T02:35:28.854Z,16.94
2016-08-12T02:36:28.875Z,16.97
2016-08-12T02:37:29.610Z,16.91
2016-08-12T02:38:28.937Z,16.9
2016-08-12T02:39:28.950Z,16.96
2016-08-12T02:40:28.973Z,16.94
2016-08-12T02:41:28.987Z,16.91
2016-08-12T02:42:29.014Z,16.91
2016-08-12T02:43:29.035Z,16.84
2016-08-12T02:44:29.766Z,16.89
2016-08-12T02:45:29.795Z,16.91
2016-08-12T02:46:29.111Z,16.89
2016-08-12T02:47:29.130Z,16.87
2016-08-12T02:48:29.865Z,16.75
2016-08-12T02:49:29.178Z,16.81
2016-08-12T02:50:29.206Z,16.83
2016-08-12T02:51:29.220Z,16.75
2016-08-12T02:52:29.256Z,16.9
2016-08-12T02:53:29.272Z,16.9
2016-08-12T02:54:29.318Z,16.79
2016-08-12T02:55:29.322Z,16.81
2016-08-12T02:56:29.356Z,16.86
2016-08-12T02:57:29.364Z,16.79
2016-08-12T02:58:29.388Z,16.79
2016-08-12T02:59:29.420Z,16.66
2016-08-12T03:00:30.148Z,16.69
2016-08-12T03:01:29.457Z,16.69
2016-08-12T03:02:30.192Z,16.71
2016-08-12T03:04:29.550Z,16.76
2016-08-12T03:05:29.566Z,16.6
2016-08-12T03:06:29.584Z,16.64
2016-08-12T03:07:29.597Z,16.71
2016-08-12T03:08:31.040Z,16.53
2016-08-12T03:09:29.666Z,16.57
2016-08-12T03:10:30.465Z,16.53
2016-08-12T03:11:29.695Z,16.51
2016-08-12T03:12:29.710Z,16.56
2016-08-12T03:13:30.449Z,16.57
2016-08-12T03:14:30.464Z,16.56
2016-08-12T03:15:29.784Z,16.46
2016-08-12T03:16:30.523Z,16.5
2016-08-12T03:17:30.543Z,16.39
2016-08-12T03:18:29.851Z,16.47
2016-08-12T03:19:29.893Z,16.33
2016-08-12T03:20:29.898Z,16.26
2016-08-12T03:21:30.634Z,16.17
2016-08-12T03:22:29.943Z,16.17
2016-08-12T03:23:30.693Z,16.16
2016-08-12T03:24:29.993Z,16.13
2016-08-12T03:25:30.025Z,16.13
2016-08-12T03:26:30.055Z,16.15
2016-08-12T03:27:30.785Z,16.21
2016-08-12T03:28:30.080Z,16.16
2016-08-12T03:29:30.107Z,16.17
2016-08-12T03:30:30.126Z,16.09
2016-08-12T03:31:30.169Z,16.09
2016-08-12T03:32:30.171Z,16.13
2016-08-12T03:33:30.192Z,16.13
2016-08-12T03:34:30.216Z,16.04
2016-08-12T03:35:30.951Z,16.01
2016-08-12T03:36:30.267Z,16.12
2016-08-12T03:37:31.765Z,16.1
2016-08-12T03:38:30.311Z,16.1
2016-08-12T03:39:30.331Z,16.16
2016-08-12T03:40:30.364Z,16.1
2016-08-12T03:41:30.379Z,16.1
2016-08-12T03:42:30.406Z,16.04
2016-08-12T03:43:31.131Z,16.15
2016-08-12T03:44:30.445Z,16.09
2016-08-12T03:45:30.468Z,16
2016-08-12T03:46:31.199Z,16.05
2016-08-12T03:47:31.949Z,16
2016-08-12T03:48:30.540Z,16
2016-08-12T03:49:30.561Z,15.95
2016-08-12T03:50:30.582Z,16
2016-08-12T03:51:30.605Z,15.92
2016-08-12T03:52:30.632Z,15.98
2016-08-12T03:53:30.652Z,16
2016-08-12T03:54:30.674Z,15.92
2016-08-12T03:55:30.697Z,15.9
2016-08-12T03:56:30.721Z,15.8
2016-08-12T03:57:30.754Z,15.79
2016-08-12T03:58:30.764Z,15.79
2016-08-12T03:59:30.791Z,15.82
2016-08-12T04:00:30.809Z,15.73
2016-08-12T04:01:30.834Z,15.75
2016-08-12T04:02:30.856Z,15.82
2016-08-12T04:03:31.589Z,15.84
2016-08-12T04:04:30.901Z,15.79
2016-08-12T04:05:30.924Z,15.75
2016-08-12T04:06:30.954Z,15.79
2016-08-12T04:07:31.676Z,15.73
2016-08-12T04:08:30.991Z,15.73
2016-08-12T04:09:31.013Z,15.8
2016-08-12T04:10:31.042Z,15.86
2016-08-12T04:11:31.060Z,15.84
2016-08-12T04:12:31.094Z,15.83
2016-08-12T04:13:31.107Z,15.83
2016-08-12T04:14:31.129Z,15.79
2016-08-12T04:15:31.151Z,15.84
2016-08-12T04:16:31.174Z,15.8
2016-08-12T04:17:31.906Z,15.82
2016-08-12T04:18:31.220Z,15.86
2016-08-12T04:19:31.241Z,15.82
2016-08-12T04:20:31.267Z,15.88
2016-08-12T04:21:31.286Z,15.83
2016-08-12T04:22:31.309Z,15.77
2016-08-12T04:23:32.047Z,15.86
2016-08-12T04:24:31.356Z,15.88
2016-08-12T04:25:31.378Z,15.86
2016-08-12T04:26:31.397Z,15.77
2016-08-12T04:27:31.426Z,15.86
2016-08-12T04:28:31.442Z,15.84
2016-08-12T04:29:31.483Z,15.94
2016-08-12T04:30:32.203Z,15.83
2016-08-12T04:31:31.507Z,15.84
2016-08-12T04:32:32.242Z,15.88
2016-08-12T04:33:32.278Z,15.91
2016-08-12T04:34:31.588Z,15.98
2016-08-12T04:35:31.603Z,15.94
2016-08-12T04:36:31.623Z,15.84
2016-08-12T04:37:31.647Z,15.98
2016-08-12T04:38:32.375Z,15.94
2016-08-12T04:39:31.692Z,15.94
2016-08-12T04:40:32.424Z,15.9
2016-08-12T04:41:31.734Z,15.95
2016-08-12T04:42:31.757Z,15.92
2016-08-12T04:43:32.496Z,15.91
2016-08-12T04:44:31.821Z,15.97
2016-08-12T04:45:31.826Z,15.94
2016-08-12T04:46:31.859Z,15.91
2016-08-12T04:47:31.869Z,15.98
2016-08-12T04:48:31.911Z,15.98
2016-08-12T04:49:31.915Z,16
2016-08-12T04:50:31.961Z,15.95
2016-08-12T04:51:33.382Z,15.94
2016-08-12T04:52:31.984Z,16
2016-08-12T04:53:32.004Z,16.12
2016-08-12T04:54:32.029Z,16.04
2016-08-12T04:55:32.052Z,15.97
2016-08-12T04:56:32.075Z,16.08
2016-08-12T04:57:32.102Z,16.01
2016-08-12T04:58:32.119Z,16.09
2016-08-12T04:59:32.143Z,16.04
2016-08-12T05:00:32.877Z,16.17
2016-08-12T05:01:32.189Z,16.13
2016-08-12T05:02:32.212Z,16.12
2016-08-12T05:03:32.235Z,16.2
2016-08-12T05:04:32.257Z,16.2
2016-08-12T05:05:32.300Z,16.26
2016-08-12T05:06:32.309Z,16.21
2016-08-12T05:07:32.331Z,16.26
2016-08-12T05:08:32.357Z,16.28
2016-08-12T05:09:32.381Z,16.28
2016-08-12T05:10:32.395Z,16.24
2016-08-12T05:11:32.415Z,16.33
2016-08-12T05:12:33.163Z,16.24
2016-08-12T05:13:32.473Z,16.32
2016-08-12T05:14:32.488Z,16.26
2016-08-12T05:15:32.514Z,16.35
2016-08-12T05:16:32.532Z,16.31
2016-08-12T05:17:32.553Z,16.32
2016-08-12T05:18:32.583Z,16.31
2016-08-12T05:19:32.598Z,16.33
2016-08-12T05:20:32.619Z,16.31
2016-08-12T05:21:33.355Z,16.35
2016-08-12T05:22:32.683Z,16.41
2016-08-12T05:23:33.400Z,16.35
2016-08-12T05:24:32.718Z,16.35
2016-08-12T05:25:32.742Z,16.33
2016-08-12T05:26:32.763Z,16.35
2016-08-12T05:27:32.785Z,16.42
2016-08-12T05:28:33.520Z,16.46
2016-08-12T05:29:33.538Z,16.41
2016-08-12T05:30:32.856Z,16.47
2016-08-12T05:31:32.875Z,16.36
2016-08-12T05:32:32.903Z,16.39
2016-08-12T05:33:32.920Z,16.41
2016-08-12T05:34:33.656Z,16.41
2016-08-12T05:35:32.965Z,16.38
2016-08-12T05:36:32.990Z,16.39
2016-08-12T05:37:33.030Z,16.31
2016-08-12T05:38:33.752Z,16.38
2016-08-12T05:39:33.060Z,16.38
2016-08-12T05:40:33.078Z,16.46
2016-08-12T05:41:33.101Z,16.41
2016-08-12T05:42:33.134Z,16.43
2016-08-12T05:43:33.859Z,16.41
2016-08-12T05:44:33.891Z,16.32
2016-08-12T05:45:33.197Z,16.39
2016-08-12T05:46:33.216Z,16.36
2016-08-12T05:47:33.240Z,16.29
2016-08-12T05:48:33.262Z,16.32
2016-08-12T05:49:33.288Z,16.32
2016-08-12T05:50:33.309Z,16.32
2016-08-12T05:51:33.334Z,16.35
2016-08-12T05:52:33.360Z,16.31
2016-08-12T05:53:34.110Z,16.23
2016-08-12T05:54:34.109Z,16.28
2016-08-12T05:55:33.428Z,16.21
2016-08-12T05:56:33.450Z,16.21
2016-08-12T05:57:33.468Z,16.23
2016-08-12T05:58:33.492Z,16.28
2016-08-12T05:59:33.512Z,16.26
2016-08-12T06:00:33.539Z,16.23
2016-08-12T06:01:33.566Z,16.26
2016-08-12T06:02:33.581Z,16.26
2016-08-12T06:03:33.606Z,16.2
2016-08-12T06:04:34.342Z,16.28
2016-08-12T06:05:33.652Z,16.23
2016-08-12T06:06:33.681Z,16.23
2016-08-12T06:07:33.717Z,16.2
2016-08-12T06:08:33.742Z,16.17
2016-08-12T06:09:33.752Z,16.26
2016-08-12T06:10:33.768Z,16.21
2016-08-12T06:11:33.787Z,16.38
2016-08-12T06:12:33.816Z,16.17
2016-08-12T06:13:33.835Z,16.36
2016-08-12T06:14:33.910Z,16.21
2016-08-12T06:15:33.898Z,16.29
2016-08-12T06:16:33.903Z,16.24
2016-08-12T06:17:34.637Z,16.23
2016-08-12T06:18:33.947Z,16.17
2016-08-12T06:19:35.395Z,16.1
2016-08-12T06:20:34.723Z,16.08
2016-08-12T06:21:34.015Z,16.08
2016-08-12T06:22:34.043Z,16.13
2016-08-12T06:23:34.064Z,16.01
2016-08-12T06:24:34.092Z,16.05
2016-08-12T06:25:34.128Z,16.1
2016-08-12T06:26:34.132Z,16.09
2016-08-12T06:27:34.155Z,16.13
2016-08-12T06:28:34.177Z,16.23
2016-08-12T06:29:34.203Z,16.1
2016-08-12T06:30:34.229Z,16.1
2016-08-12T06:31:34.254Z,16.05
2016-08-12T06:32:34.279Z,16.16
2016-08-12T06:33:34.292Z,16.24
2016-08-12T06:34:34.315Z,16.26
2016-08-12T06:35:34.345Z,16.29
2016-08-12T06:36:34.364Z,16.31
2016-08-12T06:37:34.385Z,16.26
2016-08-12T06:38:35.121Z,16.33
2016-08-12T06:39:34.449Z,16.21
2016-08-12T06:40:35.178Z,16.21
2016-08-12T06:41:34.476Z,16.23
2016-08-12T06:42:35.209Z,16.13
2016-08-12T06:43:34.523Z,16.23
2016-08-12T06:44:35.270Z,16.2
2016-08-12T06:45:34.570Z,16.24
2016-08-12T06:46:35.323Z,16.24
2016-08-12T06:47:34.616Z,16.24
2016-08-12T06:48:34.640Z,16.15
2016-08-12T06:49:34.677Z,16.23
2016-08-12T06:50:34.680Z,16.09
2016-08-12T06:51:35.614Z,16.13
2016-08-12T06:52:34.728Z,16.15
2016-08-12T06:53:34.754Z,16.23
2016-08-12T06:54:34.776Z,16.13
2016-08-12T06:55:34.796Z,16.15
2016-08-12T06:56:34.819Z,16.08
2016-08-12T06:57:34.844Z,16.02
2016-08-12T06:58:34.882Z,16.1
2016-08-12T06:59:34.891Z,16.04
2016-08-12T07:00:34.914Z,16.24
2016-08-12T07:01:34.947Z,16.17
2016-08-12T07:02:34.956Z,16.2
2016-08-12T07:03:34.987Z,16.2
2016-08-12T07:04:35.713Z,16.08
2016-08-12T07:05:35.735Z,16.21
2016-08-12T07:06:35.059Z,16.17
2016-08-12T07:07:35.068Z,16.08
2016-08-12T07:08:35.803Z,16.13
2016-08-12T07:09:35.116Z,16.2
2016-08-12T07:10:35.136Z,16.2
2016-08-12T07:11:35.185Z,16.12
2016-08-12T07:12:35.186Z,16.21
2016-08-12T07:13:35.213Z,16.1
2016-08-12T07:14:35.228Z,16.23
2016-08-12T07:15:35.256Z,16.16
2016-08-12T07:16:35.984Z,16.09
2016-08-12T07:17:36.040Z,16.13
2016-08-12T07:18:35.331Z,16.08
2016-08-12T07:19:35.355Z,16.15
2016-08-12T07:20:36.078Z,16.23
2016-08-12T07:21:35.389Z,16.23
2016-08-12T07:22:35.414Z,16.26
2016-08-12T07:23:35.437Z,16.23
2016-08-12T07:24:35.461Z,16.2
2016-08-12T07:25:35.481Z,16.2
2016-08-12T07:26:36.220Z,16.21
2016-08-12T07:27:35.559Z,16.2
2016-08-12T07:28:35.549Z,16.26
2016-08-12T07:29:35.572Z,16.26
2016-08-12T07:30:35.601Z,16.17
2016-08-12T07:31:35.619Z,16.2
2016-08-12T07:32:35.664Z,16.13
2016-08-12T07:33:35.673Z,16.1
2016-08-12T07:34:35.705Z,16.1
2016-08-12T07:35:35.710Z,16.15
2016-08-12T07:36:35.731Z,16.16
2016-08-12T07:37:36.474Z,16.13
2016-08-12T07:38:35.778Z,16.08
2016-08-12T07:39:35.802Z,16.02
2016-08-12T07:40:35.824Z,16.1
2016-08-12T07:41:35.850Z,16.1
2016-08-12T07:42:35.873Z,16.16
2016-08-12T07:43:36.601Z,16.23
2016-08-12T07:44:35.917Z,16.2
2016-08-12T07:45:35.941Z,16.08
2016-08-12T07:46:35.968Z,16.09
2016-08-12T07:47:35.987Z,16.01
2016-08-12T07:48:36.007Z,16.04
2016-08-12T07:49:36.068Z,16.08
2016-08-12T07:50:36.794Z,16.05
2016-08-12T07:51:36.075Z,16.12
2016-08-12T07:52:36.101Z,16.05
2016-08-12T07:53:36.122Z,16.08
2016-08-12T07:54:36.857Z,16.12
2016-08-12T07:55:36.168Z,16.24
2016-08-12T07:56:36.196Z,16.23
2016-08-12T07:57:36.924Z,16.26
2016-08-12T07:58:36.236Z,16.16
2016-08-12T07:59:36.257Z,16.26
2016-08-12T08:00:36.283Z,16.2
2016-08-12T08:01:37.012Z,16.2
2016-08-12T08:02:36.329Z,16.21
2016-08-12T08:03:36.353Z,16.21
2016-08-12T08:05:36.400Z,16.28
2016-08-12T08:06:36.419Z,16.28
2016-08-12T08:07:37.151Z,16.36
2016-08-12T08:08:36.463Z,16.41
2016-08-12T08:09:36.492Z,16.32
2016-08-12T08:10:36.521Z,16.21
2016-08-12T08:11:36.534Z,16.32
2016-08-12T08:12:36.569Z,16.29
2016-08-12T08:13:36.583Z,16.17
2016-08-12T08:14:37.313Z,16.23
2016-08-12T08:15:37.336Z,16.29
2016-08-12T08:16:36.651Z,16.32
2016-08-12T08:17:36.674Z,16.39
2016-08-12T08:18:36.696Z,16.35
2016-08-12T08:20:36.762Z,16.31
2016-08-12T08:21:36.773Z,16.32
2016-08-12T08:22:36.788Z,16.29
2016-08-12T08:23:37.521Z,16.35
2016-08-12T08:24:36.834Z,16.42
2016-08-12T08:25:36.863Z,16.46
2016-08-12T08:26:36.896Z,16.42
2016-08-12T08:27:36.902Z,16.42
2016-08-12T08:28:36.924Z,16.39
2016-08-12T08:29:36.959Z,16.39
2016-08-12T08:30:36.969Z,16.47
2016-08-12T08:31:37.703Z,16.36
2016-08-12T08:32:37.018Z,16.5
2016-08-12T08:33:37.041Z,16.54
2016-08-12T08:35:37.104Z,16.64
2016-08-12T08:36:37.114Z,16.51
2016-08-12T08:37:37.136Z,16.61
2016-08-12T08:38:37.882Z,16.64
2016-08-12T08:39:37.185Z,16.66
2016-08-12T08:40:37.203Z,16.61
2016-08-12T08:41:37.226Z,16.58
2016-08-12T08:42:37.248Z,16.56
2016-08-12T08:43:37.981Z,16.64
2016-08-12T08:44:37.298Z,16.64
2016-08-12T08:45:37.318Z,16.72
2016-08-12T08:46:37.342Z,16.65
2016-08-12T08:47:37.370Z,16.66
2016-08-12T08:48:37.391Z,16.64
2016-08-12T08:50:38.145Z,16.6
2016-08-12T08:51:37.481Z,16.57
2016-08-12T08:52:37.490Z,16.65
2016-08-12T08:53:37.504Z,16.58
2016-08-12T08:54:37.531Z,16.61
2016-08-12T08:55:37.554Z,16.56
2016-08-12T08:56:37.575Z,16.66
2016-08-12T08:57:37.600Z,16.66
2016-08-12T08:58:37.645Z,16.58
2016-08-12T08:59:37.651Z,16.58
2016-08-12T09:00:37.675Z,16.65
2016-08-12T09:01:37.697Z,16.64
2016-08-12T09:02:37.718Z,16.66
2016-08-12T09:03:39.172Z,16.68
2016-08-12T09:04:38.474Z,16.56
2016-08-12T09:05:37.786Z,16.68
2016-08-12T09:06:37.820Z,16.54
2016-08-12T09:07:37.845Z,16.58
2016-08-12T09:08:37.866Z,16.56
2016-08-12T09:09:37.880Z,16.54
2016-08-12T09:10:37.907Z,16.69
2016-08-12T09:11:37.925Z,16.66
2016-08-12T09:12:37.947Z,16.68
2016-08-12T09:13:37.971Z,16.65
2016-08-12T09:14:37.996Z,16.54
2016-08-12T09:15:38.735Z,16.61
2016-08-12T09:16:38.043Z,16.66
2016-08-12T09:17:38.067Z,16.64
2016-08-12T09:18:38.093Z,16.72
2016-08-12T09:19:38.128Z,16.66
2016-08-12T09:20:38.139Z,16.58
2016-08-12T09:21:38.159Z,16.66
2016-08-12T09:22:38.890Z,16.71
2016-08-12T09:23:38.208Z,16.72
2016-08-12T09:24:38.226Z,16.86
2016-08-12T09:25:38.961Z,16.81
2016-08-12T09:26:38.274Z,16.79
2016-08-12T09:27:38.297Z,16.76
2016-08-12T09:28:38.323Z,16.83
2016-08-12T09:29:38.345Z,16.81
2016-08-12T09:30:38.369Z,16.93
2016-08-12T09:31:38.392Z,16.94
2016-08-12T09:32:38.415Z,17.01
2016-08-12T09:33:38.436Z,16.97
2016-08-12T09:34:38.463Z,17.04
2016-08-12T09:35:38.490Z,17.01
2016-08-12T09:36:39.244Z,17.01
2016-08-12T09:37:38.541Z,17.08
2016-08-12T09:38:38.562Z,17.02
2016-08-12T09:39:38.583Z,16.97
2016-08-12T09:40:39.310Z,17.01
2016-08-12T09:41:38.648Z,17.04
2016-08-12T09:42:38.651Z,16.94
2016-08-12T09:43:39.380Z,16.94
2016-08-12T09:44:38.712Z,16.93
2016-08-12T09:45:39.435Z,16.86
2016-08-12T09:46:38.763Z,16.84
2016-08-12T09:47:39.476Z,16.86
2016-08-12T09:48:38.807Z,16.86
2016-08-12T09:49:38.815Z,16.84
2016-08-12T09:50:38.838Z,16.94
2016-08-12T09:51:38.860Z,16.97
2016-08-12T09:52:39.617Z,17.08
2016-08-12T09:53:38.912Z,17.08
2016-08-12T09:54:38.938Z,17.06
2016-08-12T09:55:38.956Z,17.11
2016-08-12T09:56:38.977Z,16.96
2016-08-12T09:57:39.003Z,17.01
2016-08-12T09:58:39.028Z,17.12
2016-08-12T09:59:40.469Z,17.11
2016-08-12T10:00:39.074Z,17.08
2016-08-12T10:01:39.102Z,17.05
2016-08-12T10:02:39.828Z,17.05
2016-08-12T10:03:39.144Z,17.2
2016-08-12T10:04:39.876Z,17.24
2016-08-12T10:05:39.189Z,17.26
2016-08-12T10:06:39.215Z,17.31
2016-08-12T10:07:39.243Z,17.2
2016-08-12T10:08:39.265Z,17.27
2016-08-12T10:09:40.002Z,17.27
2016-08-12T10:10:39.315Z,17.42
2016-08-12T10:11:39.333Z,17.38
2016-08-12T10:12:40.072Z,17.3
2016-08-12T10:14:39.404Z,17.41
2016-08-12T10:15:39.436Z,17.3
2016-08-12T10:16:39.466Z,17.33
2016-08-12T10:17:39.479Z,17.39
2016-08-12T10:18:39.506Z,17.44
2016-08-12T10:19:40.242Z,17.39
2016-08-12T10:20:39.554Z,17.41
2016-08-12T10:21:39.578Z,17.49
2016-08-12T10:22:39.599Z,17.49
2016-08-12T10:23:39.625Z,17.57
2016-08-12T10:24:39.646Z,17.46
2016-08-12T10:25:40.379Z,17.48
2016-08-12T10:26:39.693Z,17.52
2016-08-12T10:27:40.426Z,17.52
2016-08-12T10:28:39.742Z,17.45
2016-08-12T10:29:39.767Z,17.51
2016-08-12T10:30:39.790Z,17.51
2016-08-12T10:31:39.839Z,17.54
2016-08-12T10:32:39.848Z,17.51
2016-08-12T10:33:39.863Z,17.59
2016-08-12T10:34:39.885Z,17.71
2016-08-12T10:35:39.915Z,17.68
2016-08-12T10:36:39.929Z,17.7
2016-08-12T10:37:40.666Z,17.7
2016-08-12T10:38:40.089Z,17.68
2016-08-12T10:39:40.005Z,17.59
2016-08-12T10:40:40.028Z,17.65
2016-08-12T10:41:40.765Z,17.72
2016-08-12T10:42:40.077Z,17.7
2016-08-12T10:43:40.097Z,17.79
2016-08-12T10:44:40.122Z,17.85
2016-08-12T10:45:40.154Z,17.83
2016-08-12T10:46:40.891Z,17.9
2016-08-12T10:47:40.195Z,17.89
2016-08-12T10:48:40.224Z,17.94
2016-08-12T10:49:40.245Z,17.9
2016-08-12T10:50:40.977Z,17.94
2016-08-12T10:51:40.291Z,17.97
2016-08-12T10:52:40.315Z,17.95
2016-08-12T10:53:40.340Z,18
2016-08-12T10:54:40.360Z,18.03
2016-08-12T10:55:40.402Z,17.97
2016-08-12T10:56:40.414Z,18.08
2016-08-12T10:57:40.440Z,18.1
2016-08-12T10:58:40.465Z,18.1
2016-08-12T10:59:40.485Z,18.05
2016-08-12T11:00:40.518Z,18.08
2016-08-12T11:01:41.250Z,18.07
2016-08-12T11:02:40.561Z,18.11
2016-08-12T11:03:40.580Z,18.1
2016-08-12T11:04:40.604Z,18.13
2016-08-12T11:05:40.630Z,18.15
2016-08-12T11:06:40.654Z,18.04
2016-08-12T11:07:40.683Z,18.01
2016-08-12T11:08:40.712Z,17.98
2016-08-12T11:09:40.728Z,17.94
2016-08-12T11:10:40.771Z,17.94
2016-08-12T11:11:41.486Z,17.98
2016-08-12T11:12:40.814Z,17.97
2016-08-12T11:13:41.532Z,18.03
2016-08-12T11:14:41.558Z,18
2016-08-12T11:15:41.581Z,17.89
2016-08-12T11:16:40.918Z,17.97
2016-08-12T11:17:41.806Z,17.9
2016-08-12T11:18:40.942Z,17.95
2016-08-12T11:19:40.966Z,17.92
2016-08-12T11:20:41.704Z,17.97
2016-08-12T11:21:41.016Z,18.1
2016-08-12T11:22:41.751Z,18.04
2016-08-12T11:23:41.067Z,18.08
2016-08-12T11:24:41.086Z,18.04
2016-08-12T11:25:41.126Z,18.07
2016-08-12T11:26:41.136Z,18.07
2016-08-12T11:27:41.872Z,18.04
2016-08-12T11:28:41.892Z,18.11
2016-08-12T11:29:41.217Z,18.18
2016-08-12T11:30:41.236Z,18.19
2016-08-12T11:31:41.258Z,18.15
2016-08-12T11:32:41.284Z,18.19
2016-08-12T11:33:41.322Z,18.25
2016-08-12T11:34:41.339Z,18.22
2016-08-12T11:35:42.070Z,18.19
2016-08-12T11:36:42.088Z,18.13
2016-08-12T11:37:42.118Z,18.05
2016-08-12T11:38:41.435Z,18.05
2016-08-12T11:39:41.454Z,18.07
2016-08-12T11:40:41.478Z,18.04
2016-08-12T11:41:41.500Z,18.08
2016-08-12T11:42:42.237Z,18.1
2016-08-12T11:43:41.562Z,18.11
2016-08-12T11:44:41.575Z,18.23
2016-08-12T11:45:41.597Z,18.16
2016-08-12T11:46:41.626Z,18.22
2016-08-12T11:47:42.377Z,18.34
2016-08-12T11:48:41.677Z,18.4
2016-08-12T11:49:41.698Z,18.33
2016-08-12T11:50:41.720Z,18.34
2016-08-12T11:51:41.745Z,18.29
2016-08-12T11:52:41.771Z,18.29
2016-08-12T11:53:42.504Z,18.31
2016-08-12T11:54:41.817Z,18.34
2016-08-12T11:55:41.842Z,18.38
2016-08-12T11:56:41.864Z,18.43
2016-08-12T11:57:42.600Z,18.41
2016-08-12T11:58:41.925Z,18.38
2016-08-12T11:59:41.940Z,18.4
2016-08-12T12:00:41.966Z,18.34
2016-08-12T12:01:41.991Z,18.43
2016-08-12T12:02:42.016Z,18.47
2016-08-12T12:03:42.043Z,18.35
2016-08-12T12:04:42.065Z,18.45
2016-08-12T12:05:42.092Z,18.4
2016-08-12T12:06:42.819Z,18.41
2016-08-12T12:07:42.154Z,18.31
2016-08-12T12:08:42.161Z,18.38
2016-08-12T12:09:42.184Z,18.34
2016-08-12T12:10:42.919Z,18.22
2016-08-12T12:11:42.232Z,18.25
2016-08-12T12:12:42.261Z,18.18
2016-08-12T12:13:42.286Z,18.05
2016-08-12T12:14:42.317Z,18.16
2016-08-12T12:15:43.052Z,18.2
2016-08-12T12:16:42.359Z,18.23
2016-08-12T12:17:42.379Z,18.19
2016-08-12T12:18:43.114Z,18.26
2016-08-12T12:19:42.434Z,18.2
2016-08-12T12:20:42.481Z,18.25
2016-08-12T12:21:43.193Z,18.31
2016-08-12T12:22:43.219Z,18.37
2016-08-12T12:23:42.525Z,18.38
2016-08-12T12:24:42.558Z,18.35
2016-08-12T12:25:42.576Z,18.4
2016-08-12T12:26:42.600Z,18.34
2016-08-12T12:27:42.627Z,18.35
2016-08-12T12:28:43.373Z,18.37
2016-08-12T12:29:42.672Z,18.43
2016-08-12T12:30:42.710Z,18.44
2016-08-12T12:31:43.433Z,18.52
2016-08-12T12:32:42.747Z,18.5
2016-08-12T12:33:42.774Z,18.53
2016-08-12T12:34:42.800Z,18.53
2016-08-12T12:35:42.825Z,18.53
2016-08-12T12:36:44.961Z,18.55
2016-08-12T12:37:45.752Z,18.59
2016-08-12T12:38:45.153Z,18.59
2016-08-12T12:39:42.931Z,18.53
2016-08-12T12:40:42.945Z,18.5
2016-08-12T12:41:42.972Z,18.43
2016-08-12T12:42:43.003Z,18.4
2016-08-12T12:43:43.019Z,18.4
2016-08-12T12:44:43.068Z,18.47
2016-08-12T12:45:43.076Z,18.53
2016-08-12T12:46:43.091Z,18.5
2016-08-12T12:47:43.119Z,18.47
2016-08-12T12:48:43.147Z,18.59
2016-08-12T12:49:43.166Z,18.63
2016-08-12T12:50:43.190Z,18.68
2016-08-12T12:51:43.218Z,18.73
2016-08-12T12:52:43.958Z,18.8
2016-08-12T12:53:43.269Z,18.73
2016-08-12T12:54:43.315Z,18.71
2016-08-12T12:55:44.028Z,18.78
2016-08-12T12:56:44.057Z,18.73
2016-08-12T12:57:43.367Z,18.78
2016-08-12T12:58:43.392Z,18.77
2016-08-12T12:59:43.425Z,18.74
2016-08-12T13:00:44.154Z,18.65
2016-08-12T13:01:43.463Z,18.65
2016-08-12T13:02:43.490Z,18.62
2016-08-12T13:03:43.517Z,18.7
2016-08-12T13:04:43.540Z,18.78
2016-08-12T13:05:44.271Z,18.71